sensor_id;sensor_type;location;lat;lon;timestamp;P1;durP1;ratioP1;P2;durP2;ratioP2
20844;SDS011;10583;49.084;8.646;2022-12-26T00:02:20;8.83;;;8.83;;
20844;SDS011;10583;49.084;8.646;2022-12-26T00:04:47;9.13;;;9.13;;
20844;SDS011;10583;49.084;8.646;2022-12-26T00:07:15;8.57;;;8.57;;
20844;SDS011;10583;49.084;8.646;2022-12-26T00:09:42;8.37;;;8.37;;
20844;SDS011;10583;49.084;8.646;2022-12-26T00:12:08;7.50;;;7.50;;
20844;SDS011;10583;49.084;8.646;2022-12-26T00:14:35;8.33;;;8.33;;
20844;SDS011;10583;49.084;8.646;2022-12-26T00:17:02;8.27;;;8.27;;
20844;SDS011;10583;49.084;8.646;2022-12-26T00:19:28;9.83;;;9.83;;
20844;SDS011;10583;49.084;8.646;2022-12-26T00:21:55;10.67;;;10.67;;
20844;SDS011;10583;49.084;8.646;2022-12-26T00:24:23;9.10;;;9.10;;
20844;SDS011;10583;49.084;8.646;2022-12-26T00:26:50;9.93;;;9.93;;
20844;SDS011;10583;49.084;8.646;2022-12-26T00:29:17;10.43;;;10.33;;
20844;SDS011;10583;49.084;8.646;2022-12-26T00:31:43;7.83;;;7.83;;
20844;SDS011;10583;49.084;8.646;2022-12-26T00:34:10;8.67;;;8.67;;
20844;SDS011;10583;49.084;8.646;2022-12-26T00:36:37;8.57;;;8.57;;
20844;SDS011;10583;49.084;8.646;2022-12-26T00:39:04;8.20;;;8.20;;
20844;SDS011;10583;49.084;8.646;2022-12-26T00:41:32;9.07;;;9.07;;
20844;SDS011;10583;49.084;8.646;2022-12-26T00:43:59;7.57;;;7.57;;
20844;SDS011;10583;49.084;8.646;2022-12-26T00:46:26;9.23;;;9.23;;
20844;SDS011;10583;49.084;8.646;2022-12-26T00:48:53;10.23;;;10.23;;
20844;SDS011;10583;49.084;8.646;2022-12-26T00:51:19;10.00;;;10.00;;
20844;SDS011;10583;49.084;8.646;2022-12-26T00:53:46;9.23;;;9.23;;
20844;SDS011;10583;49.084;8.646;2022-12-26T00:56:13;8.47;;;8.47;;
20844;SDS011;10583;49.084;8.646;2022-12-26T00:58:41;8.23;;;8.23;;
20844;SDS011;10583;49.084;8.646;2022-12-26T01:01:09;8.83;;;8.83;;
20844;SDS011;10583;49.084;8.646;2022-12-26T01:03:38;7.33;;;7.33;;
20844;SDS011;10583;49.084;8.646;2022-12-26T01:06:05;8.40;;;8.40;;
20844;SDS011;10583;49.084;8.646;2022-12-26T01:08:32;7.50;;;7.50;;
20844;SDS011;10583;49.084;8.646;2022-12-26T01:11:01;7.70;;;7.70;;
20844;SDS011;10583;49.084;8.646;2022-12-26T01:13:29;7.07;;;7.07;;
20844;SDS011;10583;49.084;8.646;2022-12-26T01:15:58;6.67;;;6.67;;
20844;SDS011;10583;49.084;8.646;2022-12-26T01:18:24;7.23;;;7.23;;
20844;SDS011;10583;49.084;8.646;2022-12-26T01:20:51;7.77;;;7.77;;
20844;SDS011;10583;49.084;8.646;2022-12-26T01:23:23;6.67;;;6.67;;
20844;SDS011;10583;49.084;8.646;2022-12-26T01:25:50;7.03;;;7.03;;
20844;SDS011;10583;49.084;8.646;2022-12-26T01:28:16;7.30;;;7.30;;
20844;SDS011;10583;49.084;8.646;2022-12-26T01:30:43;7.13;;;7.13;;
20844;SDS011;10583;49.084;8.646;2022-12-26T01:33:11;8.40;;;8.40;;
20844;SDS011;10583;49.084;8.646;2022-12-26T01:35:38;7.20;;;7.20;;
20844;SDS011;10583;49.084;8.646;2022-12-26T01:38:04;7.37;;;7.37;;
20844;SDS011;10583;49.084;8.646;2022-12-26T01:40:31;7.60;;;7.60;;
20844;SDS011;10583;49.084;8.646;2022-12-26T01:42:58;7.17;;;7.17;;
20844;SDS011;10583;49.084;8.646;2022-12-26T01:45:25;7.30;;;7.30;;
20844;SDS011;10583;49.084;8.646;2022-12-26T01:47:55;6.87;;;6.87;;
20844;SDS011;10583;49.084;8.646;2022-12-26T01:50:30;6.70;;;6.70;;
20844;SDS011;10583;49.084;8.646;2022-12-26T01:53:08;6.73;;;6.73;;
20844;SDS011;10583;49.084;8.646;2022-12-26T01:55:39;8.17;;;8.17;;
20844;SDS011;10583;49.084;8.646;2022-12-26T01:58:09;6.70;;;6.70;;
20844;SDS011;10583;49.084;8.646;2022-12-26T02:00:40;7.70;;;7.70;;
20844;SDS011;10583;49.084;8.646;2022-12-26T02:03:07;7.20;;;7.20;;
20844;SDS011;10583;49.084;8.646;2022-12-26T02:05:54;6.23;;;6.23;;
20844;SDS011;10583;49.084;8.646;2022-12-26T02:08:24;7.63;;;7.63;;
20844;SDS011;10583;49.084;8.646;2022-12-26T02:10:55;6.07;;;6.07;;
20844;SDS011;10583;49.084;8.646;2022-12-26T02:13:27;6.90;;;6.90;;
20844;SDS011;10583;49.084;8.646;2022-12-26T02:15:54;7.70;;;7.70;;
20844;SDS011;10583;49.084;8.646;2022-12-26T02:18:21;6.80;;;6.80;;
20844;SDS011;10583;49.084;8.646;2022-12-26T02:20:50;7.23;;;7.23;;
20844;SDS011;10583;49.084;8.646;2022-12-26T02:23:37;7.47;;;7.47;;
20844;SDS011;10583;49.084;8.646;2022-12-26T02:26:29;6.87;;;6.87;;
20844;SDS011;10583;49.084;8.646;2022-12-26T02:32:51;7.10;;;7.10;;
20844;SDS011;10583;49.084;8.646;2022-12-26T02:35:34;8.03;;;8.03;;
20844;SDS011;10583;49.084;8.646;2022-12-26T02:38:12;7.50;;;7.50;;
20844;SDS011;10583;49.084;8.646;2022-12-26T02:40:50;7.90;;;7.90;;
20844;SDS011;10583;49.084;8.646;2022-12-26T02:43:24;6.43;;;6.43;;
20844;SDS011;10583;49.084;8.646;2022-12-26T02:46:08;6.67;;;6.67;;
20844;SDS011;10583;49.084;8.646;2022-12-26T02:49:04;6.67;;;6.67;;
20844;SDS011;10583;49.084;8.646;2022-12-26T02:51:39;6.50;;;6.50;;
20844;SDS011;10583;49.084;8.646;2022-12-26T02:54:33;6.57;;;6.57;;
20844;SDS011;10583;49.084;8.646;2022-12-26T02:57:21;6.50;;;6.50;;
20844;SDS011;10583;49.084;8.646;2022-12-26T03:00:10;6.60;;;6.60;;
20844;SDS011;10583;49.084;8.646;2022-12-26T03:02:58;3.67;;;3.67;;
20844;SDS011;10583;49.084;8.646;2022-12-26T03:05:47;4.00;;;4.00;;
20844;SDS011;10583;49.084;8.646;2022-12-26T03:08:36;3.73;;;3.73;;
20844;SDS011;10583;49.084;8.646;2022-12-26T03:11:26;3.20;;;3.20;;
20844;SDS011;10583;49.084;8.646;2022-12-26T03:14:15;3.60;;;3.60;;
20844;SDS011;10583;49.084;8.646;2022-12-26T03:16:45;4.00;;;4.00;;
20844;SDS011;10583;49.084;8.646;2022-12-26T03:19:34;3.90;;;3.90;;
20844;SDS011;10583;49.084;8.646;2022-12-26T03:22:23;3.40;;;3.40;;
20844;SDS011;10583;49.084;8.646;2022-12-26T03:24:59;3.50;;;3.50;;
20844;SDS011;10583;49.084;8.646;2022-12-26T03:27:45;3.30;;;3.30;;
20844;SDS011;10583;49.084;8.646;2022-12-26T03:30:12;3.37;;;3.37;;
20844;SDS011;10583;49.084;8.646;2022-12-26T03:32:58;2.80;;;2.80;;
20844;SDS011;10583;49.084;8.646;2022-12-26T03:35:26;3.70;;;3.70;;
20844;SDS011;10583;49.084;8.646;2022-12-26T03:37:57;2.87;;;2.87;;
20844;SDS011;10583;49.084;8.646;2022-12-26T03:40:37;2.93;;;2.93;;
20844;SDS011;10583;49.084;8.646;2022-12-26T03:43:31;2.80;;;2.80;;
20844;SDS011;10583;49.084;8.646;2022-12-26T03:46:23;2.93;;;2.93;;
20844;SDS011;10583;49.084;8.646;2022-12-26T03:49:20;2.87;;;2.87;;
20844;SDS011;10583;49.084;8.646;2022-12-26T03:52:12;2.60;;;2.60;;
20844;SDS011;10583;49.084;8.646;2022-12-26T03:55:03;2.60;;;2.60;;
20844;SDS011;10583;49.084;8.646;2022-12-26T03:57:53;2.37;;;2.37;;
20844;SDS011;10583;49.084;8.646;2022-12-26T04:00:44;2.60;;;2.60;;
20844;SDS011;10583;49.084;8.646;2022-12-26T04:03:31;2.90;;;2.90;;
20844;SDS011;10583;49.084;8.646;2022-12-26T04:06:21;2.40;;;2.40;;
20844;SDS011;10583;49.084;8.646;2022-12-26T04:09:10;2.40;;;2.40;;
20844;SDS011;10583;49.084;8.646;2022-12-26T04:11:59;2.60;;;2.60;;
20844;SDS011;10583;49.084;8.646;2022-12-26T04:14:47;2.80;;;2.80;;
20844;SDS011;10583;49.084;8.646;2022-12-26T04:17:37;2.60;;;2.60;;
20844;SDS011;10583;49.084;8.646;2022-12-26T04:20:26;2.40;;;2.40;;
20844;SDS011;10583;49.084;8.646;2022-12-26T04:22:59;2.60;;;2.60;;
20844;SDS011;10583;49.084;8.646;2022-12-26T04:25:48;2.50;;;2.50;;
20844;SDS011;10583;49.084;8.646;2022-12-26T04:28:38;2.87;;;2.87;;
20844;SDS011;10583;49.084;8.646;2022-12-26T04:31:24;2.50;;;2.50;;
20844;SDS011;10583;49.084;8.646;2022-12-26T04:34:14;2.60;;;2.60;;
20844;SDS011;10583;49.084;8.646;2022-12-26T04:37:03;2.60;;;2.60;;
20844;SDS011;10583;49.084;8.646;2022-12-26T04:39:50;2.60;;;2.60;;
20844;SDS011;10583;49.084;8.646;2022-12-26T04:42:38;2.60;;;2.60;;
20844;SDS011;10583;49.084;8.646;2022-12-26T04:45:27;2.47;;;2.47;;
20844;SDS011;10583;49.084;8.646;2022-12-26T04:47:54;2.57;;;2.57;;
20844;SDS011;10583;49.084;8.646;2022-12-26T04:50:47;2.50;;;2.50;;
20844;SDS011;10583;49.084;8.646;2022-12-26T04:53:15;2.70;;;2.70;;
20844;SDS011;10583;49.084;8.646;2022-12-26T04:55:41;2.97;;;2.97;;
20844;SDS011;10583;49.084;8.646;2022-12-26T04:58:08;2.37;;;2.37;;
20844;SDS011;10583;49.084;8.646;2022-12-26T05:00:37;2.40;;;2.40;;
20844;SDS011;10583;49.084;8.646;2022-12-26T05:03:03;2.57;;;2.57;;
20844;SDS011;10583;49.084;8.646;2022-12-26T05:05:48;2.37;;;2.37;;
20844;SDS011;10583;49.084;8.646;2022-12-26T05:08:35;2.20;;;2.20;;
20844;SDS011;10583;49.084;8.646;2022-12-26T05:11:21;2.53;;;2.53;;
20844;SDS011;10583;49.084;8.646;2022-12-26T05:13:47;2.60;;;2.60;;
20844;SDS011;10583;49.084;8.646;2022-12-26T05:16:16;2.30;;;2.30;;
20844;SDS011;10583;49.084;8.646;2022-12-26T05:19:00;2.07;;;2.07;;
20844;SDS011;10583;49.084;8.646;2022-12-26T05:21:44;2.20;;;2.20;;
20844;SDS011;10583;49.084;8.646;2022-12-26T05:24:37;2.13;;;2.13;;
20844;SDS011;10583;49.084;8.646;2022-12-26T05:27:22;2.10;;;2.10;;
20844;SDS011;10583;49.084;8.646;2022-12-26T05:30:07;2.63;;;2.63;;
20844;SDS011;10583;49.084;8.646;2022-12-26T05:32:36;2.57;;;2.57;;
20844;SDS011;10583;49.084;8.646;2022-12-26T05:35:20;2.07;;;2.07;;
20844;SDS011;10583;49.084;8.646;2022-12-26T05:37:47;2.20;;;2.20;;
20844;SDS011;10583;49.084;8.646;2022-12-26T05:40:14;2.30;;;2.30;;
20844;SDS011;10583;49.084;8.646;2022-12-26T05:42:41;2.30;;;2.30;;
20844;SDS011;10583;49.084;8.646;2022-12-26T05:45:08;2.30;;;2.30;;
20844;SDS011;10583;49.084;8.646;2022-12-26T05:47:36;2.03;;;2.03;;
20844;SDS011;10583;49.084;8.646;2022-12-26T05:50:03;2.50;;;2.50;;
20844;SDS011;10583;49.084;8.646;2022-12-26T05:52:30;2.10;;;2.10;;
20844;SDS011;10583;49.084;8.646;2022-12-26T05:54:57;2.37;;;2.37;;
20844;SDS011;10583;49.084;8.646;2022-12-26T05:57:23;2.40;;;2.40;;
20844;SDS011;10583;49.084;8.646;2022-12-26T05:59:50;2.40;;;2.40;;
20844;SDS011;10583;49.084;8.646;2022-12-26T06:02:17;2.30;;;2.30;;
20844;SDS011;10583;49.084;8.646;2022-12-26T06:04:45;2.23;;;2.23;;
20844;SDS011;10583;49.084;8.646;2022-12-26T06:07:11;2.50;;;2.50;;
20844;SDS011;10583;49.084;8.646;2022-12-26T06:09:38;2.50;;;2.50;;
20844;SDS011;10583;49.084;8.646;2022-12-26T06:12:05;2.63;;;2.63;;
20844;SDS011;10583;49.084;8.646;2022-12-26T06:14:32;2.60;;;2.60;;
20844;SDS011;10583;49.084;8.646;2022-12-26T06:16:58;2.40;;;2.40;;
20844;SDS011;10583;49.084;8.646;2022-12-26T06:19:25;2.30;;;2.30;;
20844;SDS011;10583;49.084;8.646;2022-12-26T06:21:53;2.40;;;2.40;;
20844;SDS011;10583;49.084;8.646;2022-12-26T06:24:19;2.67;;;2.67;;
20844;SDS011;10583;49.084;8.646;2022-12-26T06:26:46;2.63;;;2.63;;
20844;SDS011;10583;49.084;8.646;2022-12-26T06:29:13;2.27;;;2.27;;
20844;SDS011;10583;49.084;8.646;2022-12-26T06:31:40;2.30;;;2.30;;
20844;SDS011;10583;49.084;8.646;2022-12-26T06:34:08;2.60;;;2.60;;
20844;SDS011;10583;49.084;8.646;2022-12-26T06:36:36;2.80;;;2.80;;
20844;SDS011;10583;49.084;8.646;2022-12-26T06:39:04;2.50;;;2.50;;
20844;SDS011;10583;49.084;8.646;2022-12-26T06:41:31;2.50;;;2.50;;
20844;SDS011;10583;49.084;8.646;2022-12-26T06:43:58;2.60;;;2.60;;
20844;SDS011;10583;49.084;8.646;2022-12-26T06:46:24;2.70;;;2.70;;
20844;SDS011;10583;49.084;8.646;2022-12-26T06:48:52;2.60;;;2.60;;
20844;SDS011;10583;49.084;8.646;2022-12-26T06:51:19;2.30;;;2.30;;
20844;SDS011;10583;49.084;8.646;2022-12-26T06:53:47;2.60;;;2.60;;
20844;SDS011;10583;49.084;8.646;2022-12-26T06:56:16;2.50;;;2.50;;
20844;SDS011;10583;49.084;8.646;2022-12-26T06:58:45;2.70;;;2.70;;
20844;SDS011;10583;49.084;8.646;2022-12-26T07:01:12;2.83;;;2.83;;
20844;SDS011;10583;49.084;8.646;2022-12-26T07:03:41;3.30;;;3.30;;
20844;SDS011;10583;49.084;8.646;2022-12-26T07:06:10;3.00;;;3.00;;
20844;SDS011;10583;49.084;8.646;2022-12-26T07:08:38;3.03;;;3.03;;
20844;SDS011;10583;49.084;8.646;2022-12-26T07:11:11;2.80;;;2.80;;
20844;SDS011;10583;49.084;8.646;2022-12-26T07:13:39;2.77;;;2.77;;
20844;SDS011;10583;49.084;8.646;2022-12-26T07:16:06;3.40;;;3.40;;
20844;SDS011;10583;49.084;8.646;2022-12-26T07:18:32;2.90;;;2.90;;
20844;SDS011;10583;49.084;8.646;2022-12-26T07:20:59;3.20;;;3.20;;
20844;SDS011;10583;49.084;8.646;2022-12-26T07:23:30;2.93;;;2.93;;
20844;SDS011;10583;49.084;8.646;2022-12-26T07:25:56;2.97;;;2.97;;
20844;SDS011;10583;49.084;8.646;2022-12-26T07:28:23;3.10;;;3.10;;
20844;SDS011;10583;49.084;8.646;2022-12-26T07:30:51;3.60;;;3.60;;
20844;SDS011;10583;49.084;8.646;2022-12-26T07:33:18;3.03;;;3.03;;
20844;SDS011;10583;49.084;8.646;2022-12-26T07:35:45;3.23;;;3.23;;
20844;SDS011;10583;49.084;8.646;2022-12-26T07:38:11;3.40;;;3.40;;
20844;SDS011;10583;49.084;8.646;2022-12-26T07:40:38;3.30;;;3.30;;
20844;SDS011;10583;49.084;8.646;2022-12-26T07:43:05;3.53;;;3.53;;
20844;SDS011;10583;49.084;8.646;2022-12-26T07:45:32;3.40;;;3.40;;
20844;SDS011;10583;49.084;8.646;2022-12-26T07:48:00;3.83;;;3.83;;
20844;SDS011;10583;49.084;8.646;2022-12-26T07:50:27;3.27;;;3.27;;
20844;SDS011;10583;49.084;8.646;2022-12-26T07:52:54;3.23;;;3.23;;
20844;SDS011;10583;49.084;8.646;2022-12-26T07:55:21;3.73;;;3.73;;
20844;SDS011;10583;49.084;8.646;2022-12-26T07:57:48;3.60;;;3.60;;
20844;SDS011;10583;49.084;8.646;2022-12-26T08:00:15;3.80;;;3.80;;
20844;SDS011;10583;49.084;8.646;2022-12-26T08:02:42;4.33;;;4.33;;
20844;SDS011;10583;49.084;8.646;2022-12-26T08:05:10;4.50;;;4.50;;
20844;SDS011;10583;49.084;8.646;2022-12-26T08:07:37;3.83;;;3.83;;
20844;SDS011;10583;49.084;8.646;2022-12-26T08:10:04;4.83;;;4.83;;
20844;SDS011;10583;49.084;8.646;2022-12-26T08:12:31;4.20;;;4.20;;
20844;SDS011;10583;49.084;8.646;2022-12-26T08:14:58;4.23;;;4.23;;
20844;SDS011;10583;49.084;8.646;2022-12-26T08:17:25;4.60;;;4.60;;
20844;SDS011;10583;49.084;8.646;2022-12-26T08:19:52;5.10;;;5.10;;
20844;SDS011;10583;49.084;8.646;2022-12-26T08:22:20;4.43;;;4.43;;
20844;SDS011;10583;49.084;8.646;2022-12-26T08:24:46;4.90;;;4.90;;
20844;SDS011;10583;49.084;8.646;2022-12-26T08:27:13;4.50;;;4.50;;
20844;SDS011;10583;49.084;8.646;2022-12-26T08:29:40;5.40;;;5.40;;
20844;SDS011;10583;49.084;8.646;2022-12-26T08:32:07;4.63;;;4.63;;
20844;SDS011;10583;49.084;8.646;2022-12-26T08:34:34;5.10;;;5.10;;
20844;SDS011;10583;49.084;8.646;2022-12-26T08:37:01;5.17;;;5.17;;
20844;SDS011;10583;49.084;8.646;2022-12-26T08:39:29;4.47;;;4.47;;
20844;SDS011;10583;49.084;8.646;2022-12-26T08:41:56;4.63;;;4.63;;
20844;SDS011;10583;49.084;8.646;2022-12-26T08:44:23;4.90;;;4.90;;
20844;SDS011;10583;49.084;8.646;2022-12-26T08:46:50;4.80;;;4.80;;
20844;SDS011;10583;49.084;8.646;2022-12-26T08:49:17;4.07;;;4.07;;
20844;SDS011;10583;49.084;8.646;2022-12-26T08:51:44;4.13;;;4.13;;
20844;SDS011;10583;49.084;8.646;2022-12-26T08:54:10;4.13;;;4.13;;
20844;SDS011;10583;49.084;8.646;2022-12-26T08:56:38;4.63;;;4.63;;
20844;SDS011;10583;49.084;8.646;2022-12-26T08:59:05;5.13;;;5.13;;
20844;SDS011;10583;49.084;8.646;2022-12-26T09:01:32;5.60;;;5.60;;
20844;SDS011;10583;49.084;8.646;2022-12-26T09:03:59;4.90;;;4.90;;
20844;SDS011;10583;49.084;8.646;2022-12-26T09:06:27;6.00;;;6.00;;
20844;SDS011;10583;49.084;8.646;2022-12-26T09:08:57;6.93;;;6.93;;
20844;SDS011;10583;49.084;8.646;2022-12-26T09:11:24;5.47;;;5.47;;
20844;SDS011;10583;49.084;8.646;2022-12-26T09:13:53;5.13;;;5.13;;
20844;SDS011;10583;49.084;8.646;2022-12-26T09:16:22;4.90;;;4.90;;
20844;SDS011;10583;49.084;8.646;2022-12-26T09:18:52;4.30;;;4.30;;
20844;SDS011;10583;49.084;8.646;2022-12-26T09:21:19;4.57;;;4.57;;
20844;SDS011;10583;49.084;8.646;2022-12-26T09:23:46;4.67;;;4.67;;
20844;SDS011;10583;49.084;8.646;2022-12-26T09:26:15;4.40;;;4.40;;
20844;SDS011;10583;49.084;8.646;2022-12-26T09:28:44;4.13;;;4.13;;
20844;SDS011;10583;49.084;8.646;2022-12-26T09:31:13;3.53;;;3.53;;
20844;SDS011;10583;49.084;8.646;2022-12-26T09:33:42;3.77;;;3.77;;
20844;SDS011;10583;49.084;8.646;2022-12-26T09:36:11;4.07;;;4.07;;
20844;SDS011;10583;49.084;8.646;2022-12-26T09:38:39;3.53;;;3.53;;
20844;SDS011;10583;49.084;8.646;2022-12-26T09:41:10;3.40;;;3.40;;
20844;SDS011;10583;49.084;8.646;2022-12-26T09:43:56;3.70;;;3.70;;
20844;SDS011;10583;49.084;8.646;2022-12-26T09:46:31;5.10;;;5.10;;
20844;SDS011;10583;49.084;8.646;2022-12-26T09:49:03;5.37;;;5.37;;
20844;SDS011;10583;49.084;8.646;2022-12-26T09:51:35;5.77;;;5.77;;
20844;SDS011;10583;49.084;8.646;2022-12-26T09:54:05;3.70;;;3.70;;
20844;SDS011;10583;49.084;8.646;2022-12-26T09:56:39;3.70;;;3.70;;
20844;SDS011;10583;49.084;8.646;2022-12-26T09:59:07;4.50;;;4.50;;
20844;SDS011;10583;49.084;8.646;2022-12-26T10:01:41;3.67;;;3.67;;
20844;SDS011;10583;49.084;8.646;2022-12-26T10:04:12;3.60;;;3.60;;
20844;SDS011;10583;49.084;8.646;2022-12-26T10:06:47;3.47;;;3.47;;
20844;SDS011;10583;49.084;8.646;2022-12-26T10:09:25;2.70;;;2.70;;
20844;SDS011;10583;49.084;8.646;2022-12-26T10:12:13;3.20;;;3.20;;
20844;SDS011;10583;49.084;8.646;2022-12-26T10:14:50;3.80;;;3.80;;
20844;SDS011;10583;49.084;8.646;2022-12-26T10:17:23;3.60;;;3.60;;
20844;SDS011;10583;49.084;8.646;2022-12-26T10:19:59;4.50;;;4.50;;
20844;SDS011;10583;49.084;8.646;2022-12-26T10:22:41;3.30;;;3.30;;
20844;SDS011;10583;49.084;8.646;2022-12-26T10:25:32;3.10;;;3.10;;
20844;SDS011;10583;49.084;8.646;2022-12-26T10:28:07;4.03;;;4.03;;
20844;SDS011;10583;49.084;8.646;2022-12-26T10:30:41;3.27;;;3.27;;
20844;SDS011;10583;49.084;8.646;2022-12-26T10:33:11;7.73;;;7.73;;
20844;SDS011;10583;49.084;8.646;2022-12-26T10:35:43;6.53;;;6.53;;
20844;SDS011;10583;49.084;8.646;2022-12-26T10:38:12;4.27;;;4.27;;
20844;SDS011;10583;49.084;8.646;2022-12-26T10:40:53;3.70;;;3.70;;
20844;SDS011;10583;49.084;8.646;2022-12-26T10:43:25;4.33;;;4.33;;
20844;SDS011;10583;49.084;8.646;2022-12-26T10:46:11;3.50;;;3.50;;
20844;SDS011;10583;49.084;8.646;2022-12-26T10:48:48;3.43;;;3.43;;
20844;SDS011;10583;49.084;8.646;2022-12-26T10:51:15;3.50;;;3.50;;
20844;SDS011;10583;49.084;8.646;2022-12-26T10:53:45;2.80;;;2.80;;
20844;SDS011;10583;49.084;8.646;2022-12-26T10:56:13;2.67;;;2.67;;
20844;SDS011;10583;49.084;8.646;2022-12-26T10:58:41;2.80;;;2.80;;
20844;SDS011;10583;49.084;8.646;2022-12-26T11:01:29;2.73;;;2.73;;
20844;SDS011;10583;49.084;8.646;2022-12-26T11:03:59;2.87;;;2.87;;
20844;SDS011;10583;49.084;8.646;2022-12-26T11:06:29;2.33;;;2.33;;
20844;SDS011;10583;49.084;8.646;2022-12-26T11:08:58;2.60;;;2.60;;
20844;SDS011;10583;49.084;8.646;2022-12-26T11:11:26;2.73;;;2.73;;
20844;SDS011;10583;49.084;8.646;2022-12-26T11:14:14;2.23;;;2.23;;
20844;SDS011;10583;49.084;8.646;2022-12-26T11:16:55;2.33;;;2.33;;
20844;SDS011;10583;49.084;8.646;2022-12-26T11:19:29;2.73;;;2.73;;
20844;SDS011;10583;49.084;8.646;2022-12-26T11:22:13;2.43;;;2.43;;
20844;SDS011;10583;49.084;8.646;2022-12-26T11:27:39;2.50;;;2.50;;
20844;SDS011;10583;49.084;8.646;2022-12-26T11:30:14;2.67;;;2.67;;
20844;SDS011;10583;49.084;8.646;2022-12-26T11:32:43;2.50;;;2.50;;
20844;SDS011;10583;49.084;8.646;2022-12-26T11:35:17;2.30;;;2.30;;
20844;SDS011;10583;49.084;8.646;2022-12-26T11:37:46;2.30;;;2.30;;
20844;SDS011;10583;49.084;8.646;2022-12-26T11:40:18;1.97;;;1.97;;
20844;SDS011;10583;49.084;8.646;2022-12-26T11:42:47;1.80;;;1.80;;
20844;SDS011;10583;49.084;8.646;2022-12-26T11:45:19;1.70;;;1.70;;
20844;SDS011;10583;49.084;8.646;2022-12-26T11:47:48;1.80;;;1.80;;
20844;SDS011;10583;49.084;8.646;2022-12-26T11:50:17;1.77;;;1.77;;
20844;SDS011;10583;49.084;8.646;2022-12-26T11:52:49;1.50;;;1.50;;
20844;SDS011;10583;49.084;8.646;2022-12-26T11:55:24;1.40;;;1.40;;
20844;SDS011;10583;49.084;8.646;2022-12-26T11:57:54;1.30;;;1.30;;
20844;SDS011;10583;49.084;8.646;2022-12-26T12:00:22;1.37;;;1.37;;
20844;SDS011;10583;49.084;8.646;2022-12-26T12:02:50;1.40;;;1.40;;
20844;SDS011;10583;49.084;8.646;2022-12-26T12:05:23;1.10;;;1.10;;
20844;SDS011;10583;49.084;8.646;2022-12-26T12:08:00;1.40;;;1.40;;
20844;SDS011;10583;49.084;8.646;2022-12-26T12:10:39;1.47;;;1.47;;
20844;SDS011;10583;49.084;8.646;2022-12-26T12:13:27;1.20;;;1.20;;
20844;SDS011;10583;49.084;8.646;2022-12-26T12:16:03;1.23;;;1.23;;
20844;SDS011;10583;49.084;8.646;2022-12-26T12:18:42;0.93;;;0.93;;
20844;SDS011;10583;49.084;8.646;2022-12-26T12:21:19;1.40;;;1.40;;
20844;SDS011;10583;49.084;8.646;2022-12-26T12:24:13;1.03;;;1.03;;
20844;SDS011;10583;49.084;8.646;2022-12-26T12:26:59;1.30;;;1.30;;
20844;SDS011;10583;49.084;8.646;2022-12-26T12:29:34;1.10;;;1.10;;
20844;SDS011;10583;49.084;8.646;2022-12-26T12:32:24;0.90;;;0.90;;
20844;SDS011;10583;49.084;8.646;2022-12-26T12:35:06;1.07;;;1.07;;
20844;SDS011;10583;49.084;8.646;2022-12-26T12:40:44;0.90;;;0.90;;
20844;SDS011;10583;49.084;8.646;2022-12-26T12:43:19;1.07;;;1.07;;
20844;SDS011;10583;49.084;8.646;2022-12-26T12:45:57;0.90;;;0.90;;
20844;SDS011;10583;49.084;8.646;2022-12-26T12:48:35;0.70;;;0.70;;
20844;SDS011;10583;49.084;8.646;2022-12-26T12:51:14;0.90;;;0.90;;
20844;SDS011;10583;49.084;8.646;2022-12-26T12:53:54;0.80;;;0.80;;
20844;SDS011;10583;49.084;8.646;2022-12-26T12:56:34;0.90;;;0.90;;
20844;SDS011;10583;49.084;8.646;2022-12-26T13:01:53;0.80;;;0.80;;
20844;SDS011;10583;49.084;8.646;2022-12-26T13:04:25;0.80;;;0.80;;
20844;SDS011;10583;49.084;8.646;2022-12-26T13:06:55;0.80;;;0.80;;
20844;SDS011;10583;49.084;8.646;2022-12-26T13:09:27;0.80;;;0.80;;
20844;SDS011;10583;49.084;8.646;2022-12-26T13:11:57;0.90;;;0.90;;
20844;SDS011;10583;49.084;8.646;2022-12-26T13:14:29;0.80;;;0.80;;
20844;SDS011;10583;49.084;8.646;2022-12-26T13:17:01;0.90;;;0.90;;
20844;SDS011;10583;49.084;8.646;2022-12-26T13:19:31;0.73;;;0.73;;
20844;SDS011;10583;49.084;8.646;2022-12-26T13:22:05;0.80;;;0.80;;
20844;SDS011;10583;49.084;8.646;2022-12-26T13:24:40;1.03;;;1.03;;
20844;SDS011;10583;49.084;8.646;2022-12-26T13:27:10;0.90;;;0.90;;
20844;SDS011;10583;49.084;8.646;2022-12-26T13:29:41;0.73;;;0.73;;
20844;SDS011;10583;49.084;8.646;2022-12-26T13:32:13;0.90;;;0.90;;
20844;SDS011;10583;49.084;8.646;2022-12-26T13:34:44;1.20;;;1.20;;
20844;SDS011;10583;49.084;8.646;2022-12-26T13:40:15;0.80;;;0.80;;
20844;SDS011;10583;49.084;8.646;2022-12-26T13:42:44;1.07;;;1.07;;
20844;SDS011;10583;49.084;8.646;2022-12-26T13:45:46;0.90;;;0.90;;
20844;SDS011;10583;49.084;8.646;2022-12-26T13:54:19;0.90;;;0.90;;
20844;SDS011;10583;49.084;8.646;2022-12-26T14:00:15;1.10;;;1.10;;
20844;SDS011;10583;49.084;8.646;2022-12-26T14:02:54;1.10;;;1.10;;
20844;SDS011;10583;49.084;8.646;2022-12-26T14:05:58;1.23;;;1.23;;
20844;SDS011;10583;49.084;8.646;2022-12-26T14:09:00;1.60;;;1.60;;
20844;SDS011;10583;49.084;8.646;2022-12-26T14:11:41;1.30;;;1.30;;
20844;SDS011;10583;49.084;8.646;2022-12-26T14:14:17;1.10;;;1.10;;
20844;SDS011;10583;49.084;8.646;2022-12-26T14:16:55;1.47;;;1.47;;
20844;SDS011;10583;49.084;8.646;2022-12-26T14:19:36;1.30;;;1.30;;
20844;SDS011;10583;49.084;8.646;2022-12-26T14:22:10;1.40;;;1.40;;
20844;SDS011;10583;49.084;8.646;2022-12-26T14:24:56;1.20;;;1.20;;
20844;SDS011;10583;49.084;8.646;2022-12-26T14:27:32;1.47;;;1.47;;
20844;SDS011;10583;49.084;8.646;2022-12-26T14:30:19;1.50;;;1.50;;
20844;SDS011;10583;49.084;8.646;2022-12-26T14:32:54;1.20;;;1.20;;
20844;SDS011;10583;49.084;8.646;2022-12-26T14:35:32;1.30;;;1.30;;
20844;SDS011;10583;49.084;8.646;2022-12-26T14:38:08;1.60;;;1.60;;
20844;SDS011;10583;49.084;8.646;2022-12-26T14:40:57;1.30;;;1.30;;
20844;SDS011;10583;49.084;8.646;2022-12-26T14:43:31;1.37;;;1.37;;
20844;SDS011;10583;49.084;8.646;2022-12-26T14:46:02;1.23;;;1.23;;
20844;SDS011;10583;49.084;8.646;2022-12-26T14:48:44;1.27;;;1.27;;
20844;SDS011;10583;49.084;8.646;2022-12-26T14:51:26;1.40;;;1.40;;
20844;SDS011;10583;49.084;8.646;2022-12-26T14:54:17;1.63;;;1.63;;
20844;SDS011;10583;49.084;8.646;2022-12-26T15:00:11;1.60;;;1.60;;
20844;SDS011;10583;49.084;8.646;2022-12-26T15:02:50;1.77;;;1.77;;
20844;SDS011;10583;49.084;8.646;2022-12-26T15:05:49;1.90;;;1.90;;
20844;SDS011;10583;49.084;8.646;2022-12-26T15:08:29;1.70;;;1.70;;
20844;SDS011;10583;49.084;8.646;2022-12-26T15:11:26;2.03;;;2.03;;
20844;SDS011;10583;49.084;8.646;2022-12-26T15:14:23;1.40;;;1.40;;
20844;SDS011;10583;49.084;8.646;2022-12-26T15:17:13;1.40;;;1.40;;
20844;SDS011;10583;49.084;8.646;2022-12-26T15:20:06;1.10;;;1.10;;
20844;SDS011;10583;49.084;8.646;2022-12-26T15:26:08;1.10;;;1.10;;
20844;SDS011;10583;49.084;8.646;2022-12-26T15:28:55;1.50;;;1.50;;
20844;SDS011;10583;49.084;8.646;2022-12-26T15:31:41;2.40;;;2.40;;
20844;SDS011;10583;49.084;8.646;2022-12-26T15:34:27;4.20;;;4.20;;
20844;SDS011;10583;49.084;8.646;2022-12-26T15:37:01;2.40;;;2.40;;
20844;SDS011;10583;49.084;8.646;2022-12-26T15:39:34;1.90;;;1.90;;
20844;SDS011;10583;49.084;8.646;2022-12-26T15:42:14;2.27;;;2.27;;
20844;SDS011;10583;49.084;8.646;2022-12-26T15:44:51;8.43;;;8.43;;
20844;SDS011;10583;49.084;8.646;2022-12-26T15:47:31;3.00;;;3.00;;
20844;SDS011;10583;49.084;8.646;2022-12-26T15:50:06;2.87;;;2.87;;
20844;SDS011;10583;49.084;8.646;2022-12-26T15:52:45;1.80;;;1.80;;
20844;SDS011;10583;49.084;8.646;2022-12-26T15:55:33;2.17;;;2.17;;
20844;SDS011;10583;49.084;8.646;2022-12-26T15:58:32;2.83;;;2.83;;
20844;SDS011;10583;49.084;8.646;2022-12-26T16:01:14;2.10;;;2.10;;
20844;SDS011;10583;49.084;8.646;2022-12-26T16:04:00;2.03;;;2.03;;